sensor_id;sensor_type;location;lat;lon;timestamp;P1;P2;P0
48893;PMS5003;34710;35.798;139.446;2022-12-07T00:01:44;5;5;
48893;PMS5003;34710;35.798;139.446;2022-12-07T00:04:15;6;5;
48893;PMS5003;34710;35.798;139.446;2022-12-07T00:06:47;5;5;
48893;PMS5003;34710;35.798;139.446;2022-12-07T00:09:19;6;5;
48893;PMS5003;34710;35.798;139.446;2022-12-07T00:11:49;6;6;
48893;PMS5003;34710;35.798;139.446;2022-12-07T00:14:18;5;5;
48893;PMS5003;34710;35.798;139.446;2022-12-07T00:16:49;10;6;
48893;PMS5003;34710;35.798;139.446;2022-12-07T00:19:19;7;6;
48893;PMS5003;34710;35.798;139.446;2022-12-07T00:21:48;6;6;
48893;PMS5003;34710;35.798;139.446;2022-12-07T00:24:17;6;6;
48893;PMS5003;34710;35.798;139.446;2022-12-07T00:26:47;7;7;
48893;PMS5003;34710;35.798;139.446;2022-12-07T00:29:18;4;4;
48893;PMS5003;34710;35.798;139.446;2022-12-07T00:31:49;6;6;
48893;PMS5003;34710;35.798;139.446;2022-12-07T00:34:19;5;5;
48893;PMS5003;34710;35.798;139.446;2022-12-07T00:36:48;4;4;
48893;PMS5003;34710;35.798;139.446;2022-12-07T00:39:18;4;4;
48893;PMS5003;34710;35.798;139.446;2022-12-07T00:41:47;6;5;
48893;PMS5003;34710;35.798;139.446;2022-12-07T00:44:17;7;5;
48893;PMS5003;34710;35.798;139.446;2022-12-07T00:46:46;5;5;
48893;PMS5003;34710;35.798;139.446;2022-12-07T00:49:15;6;5;
48893;PMS5003;34710;35.798;139.446;2022-12-07T00:51:45;5;5;
48893;PMS5003;34710;35.798;139.446;2022-12-07T00:54:16;6;5;
48893;PMS5003;34710;35.798;139.446;2022-12-07T00:56:45;5;4;
48893;PMS5003;34710;35.798;139.446;2022-12-07T00:59:15;6;4;
48893;PMS5003;34710;35.798;139.446;2022-12-07T01:01:44;5;5;
48893;PMS5003;34710;35.798;139.446;2022-12-07T01:04:14;4;4;
48893;PMS5003;34710;35.798;139.446;2022-12-07T01:06:43;6;4;
48893;PMS5003;34710;35.798;139.446;2022-12-07T01:09:12;7;4;
48893;PMS5003;34710;35.798;139.446;2022-12-07T01:11:42;6;5;
48893;PMS5003;34710;35.798;139.446;2022-12-07T01:14:11;5;4;
48893;PMS5003;34710;35.798;139.446;2022-12-07T01:16:41;7;6;
48893;PMS5003;34710;35.798;139.446;2022-12-07T01:19:10;3;3;
48893;PMS5003;34710;35.798;139.446;2022-12-07T01:21:40;2;2;
48893;PMS5003;34710;35.798;139.446;2022-12-07T01:24:10;2;2;
48893;PMS5003;34710;35.798;139.446;2022-12-07T01:26:39;1;1;
48893;PMS5003;34710;35.798;139.446;2022-12-07T01:29:09;1;1;
48893;PMS5003;34710;35.798;139.446;2022-12-07T01:31:38;1;1;
48893;PMS5003;34710;35.798;139.446;2022-12-07T01:34:08;2;2;
48893;PMS5003;34710;35.798;139.446;2022-12-07T01:36:37;1;1;
48893;PMS5003;34710;35.798;139.446;2022-12-07T01:39:07;2;1;
48893;PMS5003;34710;35.798;139.446;2022-12-07T01:41:37;3;3;
48893;PMS5003;34710;35.798;139.446;2022-12-07T01:44:09;3;3;
48893;PMS5003;34710;35.798;139.446;2022-12-07T01:46:43;3;2;
48893;PMS5003;34710;35.798;139.446;2022-12-07T01:49:14;3;2;
48893;PMS5003;34710;35.798;139.446;2022-12-07T01:51:48;2;1;
48893;PMS5003;34710;35.798;139.446;2022-12-07T01:54:19;3;3;
48893;PMS5003;34710;35.798;139.446;2022-12-07T01:56:50;3;3;
48893;PMS5003;34710;35.798;139.446;2022-12-07T01:59:23;2;2;
48893;PMS5003;34710;35.798;139.446;2022-12-07T02:01:54;3;3;
48893;PMS5003;34710;35.798;139.446;2022-12-07T02:04:24;2;2;
48893;PMS5003;34710;35.798;139.446;2022-12-07T02:06:53;2;2;
48893;PMS5003;34710;35.798;139.446;2022-12-07T02:09:24;3;3;
48893;PMS5003;34710;35.798;139.446;2022-12-07T02:11:54;3;3;
48893;PMS5003;34710;35.798;139.446;2022-12-07T02:14:24;3;3;
48893;PMS5003;34710;35.798;139.446;2022-12-07T02:16:59;2;1;
48893;PMS5003;34710;35.798;139.446;2022-12-07T02:19:45;3;2;
48893;PMS5003;34710;35.798;139.446;2022-12-07T02:22:50;2;2;
48893;PMS5003;34710;35.798;139.446;2022-12-07T02:25:45;4;3;
48893;PMS5003;34710;35.798;139.446;2022-12-07T02:28:26;2;2;
48893;PMS5003;34710;35.798;139.446;2022-12-07T02:31:02;3;3;
48893;PMS5003;34710;35.798;139.446;2022-12-07T02:33:40;4;3;
48893;PMS5003;34710;35.798;139.446;2022-12-07T02:36:15;5;3;
48893;PMS5003;34710;35.798;139.446;2022-12-07T02:38:51;3;3;
48893;PMS5003;34710;35.798;139.446;2022-12-07T02:41:27;2;2;
48893;PMS5003;34710;35.798;139.446;2022-12-07T02:44:01;5;5;
48893;PMS5003;34710;35.798;139.446;2022-12-07T02:46:35;6;5;
48893;PMS5003;34710;35.798;139.446;2022-12-07T02:49:08;16;4;
48893;PMS5003;34710;35.798;139.446;2022-12-07T02:51:39;3;2;
48893;PMS5003;34710;35.798;139.446;2022-12-07T02:54:11;2;2;
48893;PMS5003;34710;35.798;139.446;2022-12-07T02:56:44;4;4;
48893;PMS5003;34710;35.798;139.446;2022-12-07T02:59:19;6;4;
48893;PMS5003;34710;35.798;139.446;2022-12-07T03:02:03;5;3;
48893;PMS5003;34710;35.798;139.446;2022-12-07T03:04:45;4;3;
48893;PMS5003;34710;35.798;139.446;2022-12-07T03:07:26;4;3;
48893;PMS5003;34710;35.798;139.446;2022-12-07T03:10:03;7;4;
48893;PMS5003;34710;35.798;139.446;2022-12-07T03:12:44;2;2;
48893;PMS5003;34710;35.798;139.446;2022-12-07T03:15:21;5;3;
48893;PMS5003;34710;35.798;139.446;2022-12-07T03:17:56;2;2;
48893;PMS5003;34710;35.798;139.446;2022-12-07T03:20:27;3;3;
48893;PMS5003;34710;35.798;139.446;2022-12-07T03:22:57;4;2;
48893;PMS5003;34710;35.798;139.446;2022-12-07T03:25:27;3;3;
48893;PMS5003;34710;35.798;139.446;2022-12-07T03:27:57;3;3;
48893;PMS5003;34710;35.798;139.446;2022-12-07T03:30:29;3;2;
48893;PMS5003;34710;35.798;139.446;2022-12-07T03:33:02;4;4;
48893;PMS5003;34710;35.798;139.446;2022-12-07T03:35:36;2;2;
48893;PMS5003;34710;35.798;139.446;2022-12-07T03:38:11;3;3;
48893;PMS5003;34710;35.798;139.446;2022-12-07T03:40:47;2;2;
48893;PMS5003;34710;35.798;139.446;2022-12-07T03:43:20;3;3;
48893;PMS5003;34710;35.798;139.446;2022-12-07T03:45:53;3;1;
48893;PMS5003;34710;35.798;139.446;2022-12-07T03:48:28;6;5;
48893;PMS5003;34710;35.798;139.446;2022-12-07T03:51:05;4;4;
48893;PMS5003;34710;35.798;139.446;2022-12-07T03:53:40;4;3;
48893;PMS5003;34710;35.798;139.446;2022-12-07T03:56:13;4;3;
48893;PMS5003;34710;35.798;139.446;2022-12-07T03:58:43;3;3;
48893;PMS5003;34710;35.798;139.446;2022-12-07T04:01:12;4;3;
48893;PMS5003;34710;35.798;139.446;2022-12-07T04:03:42;2;2;
48893;PMS5003;34710;35.798;139.446;2022-12-07T04:06:11;5;3;
48893;PMS5003;34710;35.798;139.446;2022-12-07T04:08:40;3;3;
48893;PMS5003;34710;35.798;139.446;2022-12-07T04:11:10;3;3;
48893;PMS5003;34710;35.798;139.446;2022-12-07T04:13:39;4;4;
48893;PMS5003;34710;35.798;139.446;2022-12-07T04:16:09;4;4;
48893;PMS5003;34710;35.798;139.446;2022-12-07T04:18:38;3;3;
48893;PMS5003;34710;35.798;139.446;2022-12-07T04:21:07;3;3;
48893;PMS5003;34710;35.798;139.446;2022-12-07T04:23:37;3;3;
48893;PMS5003;34710;35.798;139.446;2022-12-07T04:26:06;4;2;
48893;PMS5003;34710;35.798;139.446;2022-12-07T04:28:36;5;2;
48893;PMS5003;34710;35.798;139.446;2022-12-07T04:31:05;4;2;
48893;PMS5003;34710;35.798;139.446;2022-12-07T04:33:35;3;3;
48893;PMS5003;34710;35.798;139.446;2022-12-07T04:36:04;3;3;
48893;PMS5003;34710;35.798;139.446;2022-12-07T04:38:33;6;4;
48893;PMS5003;34710;35.798;139.446;2022-12-07T04:41:04;6;5;
48893;PMS5003;34710;35.798;139.446;2022-12-07T04:43:35;4;4;
48893;PMS5003;34710;35.798;139.446;2022-12-07T04:46:04;7;5;
48893;PMS5003;34710;35.798;139.446;2022-12-07T04:48:34;4;3;
48893;PMS5003;34710;35.798;139.446;2022-12-07T04:51:04;3;3;
48893;PMS5003;34710;35.798;139.446;2022-12-07T04:53:33;6;4;
48893;PMS5003;34710;35.798;139.446;2022-12-07T04:56:02;4;4;
48893;PMS5003;34710;35.798;139.446;2022-12-07T04:58:31;7;5;
48893;PMS5003;34710;35.798;139.446;2022-12-07T05:01:01;4;3;
48893;PMS5003;34710;35.798;139.446;2022-12-07T05:03:31;4;4;
48893;PMS5003;34710;35.798;139.446;2022-12-07T05:06:00;3;3;
48893;PMS5003;34710;35.798;139.446;2022-12-07T05:08:29;3;3;
48893;PMS5003;34710;35.798;139.446;2022-12-07T05:10:59;2;2;
48893;PMS5003;34710;35.798;139.446;2022-12-07T05:13:28;1;1;
48893;PMS5003;34710;35.798;139.446;2022-12-07T05:15:58;3;3;
48893;PMS5003;34710;35.798;139.446;2022-12-07T05:18:27;3;3;
48893;PMS5003;34710;35.798;139.446;2022-12-07T05:20:57;5;4;
48893;PMS5003;34710;35.798;139.446;2022-12-07T05:23:26;4;3;
48893;PMS5003;34710;35.798;139.446;2022-12-07T05:25:55;6;4;
48893;PMS5003;34710;35.798;139.446;2022-12-07T05:28:25;4;4;
48893;PMS5003;34710;35.798;139.446;2022-12-07T05:30:54;4;4;
48893;PMS5003;34710;35.798;139.446;2022-12-07T05:33:24;7;5;
48893;PMS5003;34710;35.798;139.446;2022-12-07T05:35:53;3;3;
48893;PMS5003;34710;35.798;139.446;2022-12-07T05:38:23;5;3;
48893;PMS5003;34710;35.798;139.446;2022-12-07T05:40:52;7;5;
48893;PMS5003;34710;35.798;139.446;2022-12-07T05:43:22;3;3;
48893;PMS5003;34710;35.798;139.446;2022-12-07T05:45:51;7;3;
48893;PMS5003;34710;35.798;139.446;2022-12-07T05:48:21;5;5;
48893;PMS5003;34710;35.798;139.446;2022-12-07T05:50:50;5;5;
48893;PMS5003;34710;35.798;139.446;2022-12-07T05:53:20;3;3;
48893;PMS5003;34710;35.798;139.446;2022-12-07T05:55:49;3;3;
48893;PMS5003;34710;35.798;139.446;2022-12-07T05:58:18;3;3;
48893;PMS5003;34710;35.798;139.446;2022-12-07T06:00:48;4;3;
48893;PMS5003;34710;35.798;139.446;2022-12-07T06:03:17;4;2;
48893;PMS5003;34710;35.798;139.446;2022-12-07T06:05:47;2;2;
48893;PMS5003;34710;35.798;139.446;2022-12-07T06:08:17;3;3;
48893;PMS5003;34710;35.798;139.446;2022-12-07T06:10:47;2;2;
48893;PMS5003;34710;35.798;139.446;2022-12-07T06:13:16;3;3;
48893;PMS5003;34710;35.798;139.446;2022-12-07T06:15:46;15;12;
48893;PMS5003;34710;35.798;139.446;2022-12-07T06:18:16;5;4;
48893;PMS5003;34710;35.798;139.446;2022-12-07T06:20:45;4;4;
48893;PMS5003;34710;35.798;139.446;2022-12-07T06:23:15;6;3;
48893;PMS5003;34710;35.798;139.446;2022-12-07T06:25:45;3;3;
48893;PMS5003;34710;35.798;139.446;2022-12-07T06:28:15;3;3;
48893;PMS5003;34710;35.798;139.446;2022-12-07T06:30:44;4;4;
48893;PMS5003;34710;35.798;139.446;2022-12-07T06:33:13;3;3;
48893;PMS5003;34710;35.798;139.446;2022-12-07T06:35:43;2;2;
48893;PMS5003;34710;35.798;139.446;2022-12-07T06:38:12;5;4;
48893;PMS5003;34710;35.798;139.446;2022-12-07T06:40:42;4;4;
48893;PMS5003;34710;35.798;139.446;2022-12-07T06:43:11;3;3;
48893;PMS5003;34710;35.798;139.446;2022-12-07T06:45:43;3;3;
48893;PMS5003;34710;35.798;139.446;2022-12-07T06:48:15;5;4;
48893;PMS5003;34710;35.798;139.446;2022-12-07T06:50:44;3;3;
48893;PMS5003;34710;35.798;139.446;2022-12-07T06:53:15;3;3;
48893;PMS5003;34710;35.798;139.446;2022-12-07T06:55:45;4;3;
48893;PMS5003;34710;35.798;139.446;2022-12-07T06:58:16;4;4;
48893;PMS5003;34710;35.798;139.446;2022-12-07T07:00:47;2;2;
48893;PMS5003;34710;35.798;139.446;2022-12-07T07:03:22;3;3;
48893;PMS5003;34710;35.798;139.446;2022-12-07T07:05:51;4;4;
48893;PMS5003;34710;35.798;139.446;2022-12-07T07:08:21;3;3;
48893;PMS5003;34710;35.798;139.446;2022-12-07T07:10:50;3;3;
48893;PMS5003;34710;35.798;139.446;2022-12-07T07:13:20;5;5;
48893;PMS5003;34710;35.798;139.446;2022-12-07T07:15:53;3;2;
48893;PMS5003;34710;35.798;139.446;2022-12-07T07:18:23;3;3;
48893;PMS5003;34710;35.798;139.446;2022-12-07T07:20:55;3;3;
48893;PMS5003;34710;35.798;139.446;2022-12-07T07:23:25;5;5;
48893;PMS5003;34710;35.798;139.446;2022-12-07T07:25:54;4;4;
48893;PMS5003;34710;35.798;139.446;2022-12-07T07:28:27;5;4;
48893;PMS5003;34710;35.798;139.446;2022-12-07T07:30:56;4;4;
48893;PMS5003;34710;35.798;139.446;2022-12-07T07:33:26;10;5;
48893;PMS5003;34710;35.798;139.446;2022-12-07T07:35:55;5;4;
48893;PMS5003;34710;35.798;139.446;2022-12-07T07:38:25;13;8;
48893;PMS5003;34710;35.798;139.446;2022-12-07T07:40:55;10;8;
48893;PMS5003;34710;35.798;139.446;2022-12-07T07:43:26;7;6;
48893;PMS5003;34710;35.798;139.446;2022-12-07T07:45:55;8;8;
48893;PMS5003;34710;35.798;139.446;2022-12-07T07:48:27;9;7;
48893;PMS5003;34710;35.798;139.446;2022-12-07T07:50:57;6;5;
48893;PMS5003;34710;35.798;139.446;2022-12-07T07:53:26;7;6;
48893;PMS5003;34710;35.798;139.446;2022-12-07T07:55:56;5;5;
48893;PMS5003;34710;35.798;139.446;2022-12-07T07:58:27;5;5;
48893;PMS5003;34710;35.798;139.446;2022-12-07T08:00:56;9;7;
48893;PMS5003;34710;35.798;139.446;2022-12-07T08:03:32;6;6;
48893;PMS5003;34710;35.798;139.446;2022-12-07T08:06:02;8;8;
48893;PMS5003;34710;35.798;139.446;2022-12-07T08:08:31;10;10;
48893;PMS5003;34710;35.798;139.446;2022-12-07T08:11:06;9;7;
48893;PMS5003;34710;35.798;139.446;2022-12-07T08:13:36;7;7;
48893;PMS5003;34710;35.798;139.446;2022-12-07T08:16:08;8;6;
48893;PMS5003;34710;35.798;139.446;2022-12-07T08:18:39;12;6;
48893;PMS5003;34710;35.798;139.446;2022-12-07T08:21:11;13;10;
48893;PMS5003;34710;35.798;139.446;2022-12-07T08:23:42;20;11;
48893;PMS5003;34710;35.798;139.446;2022-12-07T08:26:11;13;9;
48893;PMS5003;34710;35.798;139.446;2022-12-07T08:28:42;22;9;
48893;PMS5003;34710;35.798;139.446;2022-12-07T08:31:12;10;9;
48893;PMS5003;34710;35.798;139.446;2022-12-07T08:33:44;17;11;
48893;PMS5003;34710;35.798;139.446;2022-12-07T08:36:16;13;12;
48893;PMS5003;34710;35.798;139.446;2022-12-07T08:38:45;15;12;
48893;PMS5003;34710;35.798;139.446;2022-12-07T08:41:15;12;9;
48893;PMS5003;34710;35.798;139.446;2022-12-07T08:43:45;14;10;
48893;PMS5003;34710;35.798;139.446;2022-12-07T08:46:17;14;12;
48893;PMS5003;34710;35.798;139.446;2022-12-07T08:48:49;13;10;
48893;PMS5003;34710;35.798;139.446;2022-12-07T08:51:24;11;10;
48893;PMS5003;34710;35.798;139.446;2022-12-07T08:53:54;17;11;
48893;PMS5003;34710;35.798;139.446;2022-12-07T08:56:27;39;31;
48893;PMS5003;34710;35.798;139.446;2022-12-07T08:58:56;77;51;
48893;PMS5003;34710;35.798;139.446;2022-12-07T09:01:26;70;53;
48893;PMS5003;34710;35.798;139.446;2022-12-07T09:03:56;73;53;
48893;PMS5003;34710;35.798;139.446;2022-12-07T09:06:28;47;37;
48893;PMS5003;34710;35.798;139.446;2022-12-07T09:08:58;51;36;
48893;PMS5003;34710;35.798;139.446;2022-12-07T09:11:29;25;24;
48893;PMS5003;34710;35.798;139.446;2022-12-07T09:13:58;25;18;
48893;PMS5003;34710;35.798;139.446;2022-12-07T09:16:27;24;16;
48893;PMS5003;34710;35.798;139.446;2022-12-07T09:19:01;13;11;
48893;PMS5003;34710;35.798;139.446;2022-12-07T09:21:30;17;16;
48893;PMS5003;34710;35.798;139.446;2022-12-07T09:23:59;14;13;
48893;PMS5003;34710;35.798;139.446;2022-12-07T09:26:28;13;9;
48893;PMS5003;34710;35.798;139.446;2022-12-07T09:28:57;21;12;
48893;PMS5003;34710;35.798;139.446;2022-12-07T09:31:27;13;9;
48893;PMS5003;34710;35.798;139.446;2022-12-07T09:33:58;12;11;
48893;PMS5003;34710;35.798;139.446;2022-12-07T09:36:28;24;11;
48893;PMS5003;34710;35.798;139.446;2022-12-07T09:38:57;8;8;
48893;PMS5003;34710;35.798;139.446;2022-12-07T09:41:27;12;12;
48893;PMS5003;34710;35.798;139.446;2022-12-07T09:44:02;10;10;
48893;PMS5003;34710;35.798;139.446;2022-12-07T09:46:38;32;16;
48893;PMS5003;34710;35.798;139.446;2022-12-07T09:49:11;15;8;
48893;PMS5003;34710;35.798;139.446;2022-12-07T09:51:43;16;11;
48893;PMS5003;34710;35.798;139.446;2022-12-07T09:54:15;13;13;
48893;PMS5003;34710;35.798;139.446;2022-12-07T09:56:44;14;14;
48893;PMS5003;34710;35.798;139.446;2022-12-07T09:59:16;13;12;
48893;PMS5003;34710;35.798;139.446;2022-12-07T10:01:46;9;9;
48893;PMS5003;34710;35.798;139.446;2022-12-07T10:04:18;15;12;
48893;PMS5003;34710;35.798;139.446;2022-12-07T10:06:49;12;8;
48893;PMS5003;34710;35.798;139.446;2022-12-07T10:09:20;11;11;
48893;PMS5003;34710;35.798;139.446;2022-12-07T10:12:06;10;9;
48893;PMS5003;34710;35.798;139.446;2022-12-07T10:14:38;13;11;
48893;PMS5003;34710;35.798;139.446;2022-12-07T10:17:37;11;11;
48893;PMS5003;34710;35.798;139.446;2022-12-07T10:20:13;16;13;
48893;PMS5003;34710;35.798;139.446;2022-12-07T10:23:03;15;12;
48893;PMS5003;34710;35.798;139.446;2022-12-07T10:25:40;11;11;
48893;PMS5003;34710;35.798;139.446;2022-12-07T10:28:12;14;13;
48893;PMS5003;34710;35.798;139.446;2022-12-07T10:30:48;11;11;
48893;PMS5003;34710;35.798;139.446;2022-12-07T10:33:28;12;10;
48893;PMS5003;34710;35.798;139.446;2022-12-07T10:36:00;16;12;
48893;PMS5003;34710;35.798;139.446;2022-12-07T10:38:44;14;13;
48893;PMS5003;34710;35.798;139.446;2022-12-07T10:41:15;16;13;
48893;PMS5003;34710;35.798;139.446;2022-12-07T10:43:47;15;15;
48893;PMS5003;34710;35.798;139.446;2022-12-07T10:46:24;15;13;
48893;PMS5003;34710;35.798;139.446;2022-12-07T14:51:07;10;10;
48893;PMS5003;34710;35.798;139.446;2022-12-07T14:53:40;18;11;
48893;PMS5003;34710;35.798;139.446;2022-12-07T14:56:11;8;8;
48893;PMS5003;34710;35.798;139.446;2022-12-07T14:58:41;8;8;
48893;PMS5003;34710;35.798;139.446;2022-12-07T15:01:10;9;9;
48893;PMS5003;34710;35.798;139.446;2022-12-07T15:03:39;11;10;
48893;PMS5003;34710;35.798;139.446;2022-12-07T15:06:10;12;9;
48893;PMS5003;34710;35.798;139.446;2022-12-07T15:08:43;9;9;
48893;PMS5003;34710;35.798;139.446;2022-12-07T15:11:12;10;9;
48893;PMS5003;34710;35.798;139.446;2022-12-07T15:13:42;13;9;
48893;PMS5003;34710;35.798;139.446;2022-12-07T15:16:12;11;11;
48893;PMS5003;34710;35.798;139.446;2022-12-07T15:18:46;9;8;
48893;PMS5003;34710;35.798;139.446;2022-12-07T15:21:15;13;10;
48893;PMS5003;34710;35.798;139.446;2022-12-07T15:23:46;9;9;
48893;PMS5003;34710;35.798;139.446;2022-12-07T15:26:15;13;11;
48893;PMS5003;34710;35.798;139.446;2022-12-07T15:28:44;8;8;
48893;PMS5003;34710;35.798;139.446;2022-12-07T15:31:13;9;8;
48893;PMS5003;34710;35.798;139.446;2022-12-07T15:33:43;11;9;
48893;PMS5003;34710;35.798;139.446;2022-12-07T15:36:15;9;8;
48893;PMS5003;34710;35.798;139.446;2022-12-07T15:38:48;12;9;
48893;PMS5003;34710;35.798;139.446;2022-12-07T15:41:18;16;9;
48893;PMS5003;34710;35.798;139.446;2022-12-07T15:43:47;8;8;
48893;PMS5003;34710;35.798;139.446;2022-12-07T15:46:17;8;8;
48893;PMS5003;34710;35.798;139.446;2022-12-07T15:48:46;14;11;
48893;PMS5003;34710;35.798;139.446;2022-12-07T15:51:16;18;11;
48893;PMS5003;34710;35.798;139.446;2022-12-07T15:53:45;13;11;
48893;PMS5003;34710;35.798;139.446;2022-12-07T15:56:15;12;11;
48893;PMS5003;34710;35.798;139.446;2022-12-07T15:58:43;9;8;
48893;PMS5003;34710;35.798;139.446;2022-12-07T16:01:13;19;10;
48893;PMS5003;34710;35.798;139.446;2022-12-07T16:03:44;15;12;
48893;PMS5003;34710;35.798;139.446;2022-12-07T16:06:15;9;9;
48893;PMS5003;34710;35.798;139.446;2022-12-07T16:08:45;14;11;
48893;PMS5003;34710;35.798;139.446;2022-12-07T16:11:15;8;7;
48893;PMS5003;34710;35.798;139.446;2022-12-07T16:13:43;11;11;
48893;PMS5003;34710;35.798;139.446;2022-12-07T16:16:13;7;7;
48893;PMS5003;34710;35.798;139.446;2022-12-07T16:18:45;10;10;
48893;PMS5003;34710;35.798;139.446;2022-12-07T16:21:15;11;10;
48893;PMS5003;34710;35.798;139.446;2022-12-07T16:23:45;9;8;
48893;PMS5003;34710;35.798;139.446;2022-12-07T16:26:15;11;9;
48893;PMS5003;34710;35.798;139.446;2022-12-07T16:28:45;10;7;
48893;PMS5003;34710;35.798;139.446;2022-12-07T16:31:17;11;10;
48893;PMS5003;34710;35.798;139.446;2022-12-07T16:33:48;11;9;
48893;PMS5003;34710;35.798;139.446;2022-12-07T16:36:20;9;9;
48893;PMS5003;34710;35.798;139.446;2022-12-07T16:38:50;9;9;
48893;PMS5003;34710;35.798;139.446;2022-12-07T16:41:19;13;10;
48893;PMS5003;34710;35.798;139.446;2022-12-07T16:43:49;9;9;
48893;PMS5003;34710;35.798;139.446;2022-12-07T16:46:18;9;9;
48893;PMS5003;34710;35.798;139.446;2022-12-07T16:48:47;20;7;
48893;PMS5003;34710;35.798;139.446;2022-12-07T16:51:17;11;11;
48893;PMS5003;34710;35.798;139.446;2022-12-07T16:53:46;10;7;
48893;PMS5003;34710;35.798;139.446;2022-12-07T16:56:15;8;8;
48893;PMS5003;34710;35.798;139.446;2022-12-07T16:58:45;8;8;
48893;PMS5003;34710;35.798;139.446;2022-12-07T17:01:15;9;8;
48893;PMS5003;34710;35.798;139.446;2022-12-07T17:03:46;8;7;
48893;PMS5003;34710;35.798;139.446;2022-12-07T17:06:16;8;7;
48893;PMS5003;34710;35.798;139.446;2022-12-07T17:08:47;9;7;
48893;PMS5003;34710;35.798;139.446;2022-12-07T17:11:18;8;8;
48893;PMS5003;34710;35.798;139.446;2022-12-07T17:13:49;9;8;
48893;PMS5003;34710;35.798;139.446;2022-12-07T17:16:18;7;7;
48893;PMS5003;34710;35.798;139.446;2022-12-07T17:18:47;10;9;
48893;PMS5003;34710;35.798;139.446;2022-12-07T17:21:17;8;8;
48893;PMS5003;34710;35.798;139.446;2022-12-07T17:23:46;8;7;
48893;PMS5003;34710;35.798;139.446;2022-12-07T17:26:17;10;7;
48893;PMS5003;34710;35.798;139.446;2022-12-07T17:28:47;8;6;
48893;PMS5003;34710;35.798;139.446;2022-12-07T17:31:17;8;7;
48893;PMS5003;34710;35.798;139.446;2022-12-07T17:33:49;8;8;
48893;PMS5003;34710;35.798;139.446;2022-12-07T17:36:20;7;6;
48893;PMS5003;34710;35.798;139.446;2022-12-07T17:38:50;8;8;
48893;PMS5003;34710;35.798;139.446;2022-12-07T17:41:20;7;7;
48893;PMS5003;34710;35.798;139.446;2022-12-07T17:43:51;7;7;
48893;PMS5003;34710;35.798;139.446;2022-12-07T17:46:20;8;8;
48893;PMS5003;34710;35.798;139.446;2022-12-07T17:48:49;8;6;
48893;PMS5003;34710;35.798;139.446;2022-12-07T17:51:22;6;6;
48893;PMS5003;34710;35.798;139.446;2022-12-07T17:53:51;6;5;
48893;PMS5003;34710;35.798;139.446;2022-12-07T17:56:20;8;7;
48893;PMS5003;34710;35.798;139.446;2022-12-07T17:58:49;8;6;
48893;PMS5003;34710;35.798;139.446;2022-12-07T18:01:18;11;7;
48893;PMS5003;34710;35.798;139.446;2022-12-07T18:03:47;7;7;
48893;PMS5003;34710;35.798;139.446;2022-12-07T18:06:17;7;7;
48893;PMS5003;34710;35.798;139.446;2022-12-07T18:08:45;8;8;
48893;PMS5003;34710;35.798;139.446;2022-12-07T18:11:14;8;7;
48893;PMS5003;34710;35.798;139.446;2022-12-07T18:13:44;7;6;
48893;PMS5003;34710;35.798;139.446;2022-12-07T18:16:14;5;5;
48893;PMS5003;34710;35.798;139.446;2022-12-07T18:18:44;10;8;
48893;PMS5003;34710;35.798;139.446;2022-12-07T18:21:14;8;7;
48893;PMS5003;34710;35.798;139.446;2022-12-07T18:23:47;10;7;
48893;PMS5003;34710;35.798;139.446;2022-12-07T18:26:17;7;7;
48893;PMS5003;34710;35.798;139.446;2022-12-07T18:28:49;7;7;
48893;PMS5003;34710;35.798;139.446;2022-12-07T18:31:19;11;8;
48893;PMS5003;34710;35.798;139.446;2022-12-07T18:33:48;8;7;
48893;PMS5003;34710;35.798;139.446;2022-12-07T18:36:18;9;8;
48893;PMS5003;34710;35.798;139.446;2022-12-07T18:38:46;10;9;
48893;PMS5003;34710;35.798;139.446;2022-12-07T18:41:15;8;8;
48893;PMS5003;34710;35.798;139.446;2022-12-07T18:43:45;10;9;
48893;PMS5003;34710;35.798;139.446;2022-12-07T18:46:16;10;8;
48893;PMS5003;34710;35.798;139.446;2022-12-07T18:48:46;10;10;
48893;PMS5003;34710;35.798;139.446;2022-12-07T18:51:17;8;7;
48893;PMS5003;34710;35.798;139.446;2022-12-07T18:53:47;8;7;
48893;PMS5003;34710;35.798;139.446;2022-12-07T18:56:17;8;8;
48893;PMS5003;34710;35.798;139.446;2022-12-07T18:58:48;9;8;
48893;PMS5003;34710;35.798;139.446;2022-12-07T19:01:18;9;9;
48893;PMS5003;34710;35.798;139.446;2022-12-07T19:03:47;9;9;
48893;PMS5003;34710;35.798;139.446;2022-12-07T19:06:16;11;9;
48893;PMS5003;34710;35.798;139.446;2022-12-07T19:08:44;9;8;
48893;PMS5003;34710;35.798;139.446;2022-12-07T19:11:16;9;8;
48893;PMS5003;34710;35.798;139.446;2022-12-07T19:13:45;8;8;
48893;PMS5003;34710;35.798;139.446;2022-12-07T19:16:15;7;7;
48893;PMS5003;34710;35.798;139.446;2022-12-07T19:18:43;10;8;
48893;PMS5003;34710;35.798;139.446;2022-12-07T19:21:13;10;9;
48893;PMS5003;34710;35.798;139.446;2022-12-07T19:23:42;11;9;
48893;PMS5003;34710;35.798;139.446;2022-12-07T19:26:11;9;9;
48893;PMS5003;34710;35.798;139.446;2022-12-07T19:28:40;10;10;
48893;PMS5003;34710;35.798;139.446;2022-12-07T19:31:09;12;9;
48893;PMS5003;34710;35.798;139.446;2022-12-07T19:33:39;9;8;
48893;PMS5003;34710;35.798;139.446;2022-12-07T19:36:09;8;8;
48893;PMS5003;34710;35.798;139.446;2022-12-07T19:38:38;10;8;
48893;PMS5003;34710;35.798;139.446;2022-12-07T19:41:08;9;9;
48893;PMS5003;34710;35.798;139.446;2022-12-07T19:43:38;8;8;
48893;PMS5003;34710;35.798;139.446;2022-12-07T19:46:07;12;8;
48893;PMS5003;34710;35.798;139.446;2022-12-07T19:48:36;7;7;
48893;PMS5003;34710;35.798;139.446;2022-12-07T19:51:05;8;8;
48893;PMS5003;34710;35.798;139.446;2022-12-07T19:53:34;8;8;
48893;PMS5003;34710;35.798;139.446;2022-12-07T19:56:04;10;9;
48893;PMS5003;34710;35.798;139.446;2022-12-07T19:58:34;10;7;
48893;PMS5003;34710;35.798;139.446;2022-12-07T20:01:04;8;7;
48893;PMS5003;34710;35.798;139.446;2022-12-07T20:03:34;10;6;
48893;PMS5003;34710;35.798;139.446;2022-12-07T20:06:06;7;7;
48893;PMS5003;34710;35.798;139.446;2022-12-07T20:08:36;12;8;
48893;PMS5003;34710;35.798;139.446;2022-12-07T20:11:05;8;8;
48893;PMS5003;34710;35.798;139.446;2022-12-07T20:13:33;7;7;
48893;PMS5003;34710;35.798;139.446;2022-12-07T20:16:03;7;7;
48893;PMS5003;34710;35.798;139.446;2022-12-07T20:18:33;7;7;
48893;PMS5003;34710;35.798;139.446;2022-12-07T20:21:02;12;8;
48893;PMS5003;34710;35.798;139.446;2022-12-07T20:23:32;9;8;
48893;PMS5003;34710;35.798;139.446;2022-12-07T20:26:01;11;10;
48893;PMS5003;34710;35.798;139.446;2022-12-07T20:28:31;12;12;
48893;PMS5003;34710;35.798;139.446;2022-12-07T20:31:01;7;7;
48893;PMS5003;34710;35.798;139.446;2022-12-07T20:33:30;13;10;
48893;PMS5003;34710;35.798;139.446;2022-12-07T20:35:59;8;8;